Time;durP1;ratioP1;P1;durP2;ratioP2;P2;SDS_P1;SDS_P2;PMS_P1;PMS_P2;Temp;Humidity;BMP_temperature;BMP_pressure;BME280_temperature;BME280_humidity;BME280_pressure;Samples;Min_cycle;Max_cycle;Signal;HPM_P1;HPM_P2
2023/01/24 00:01:54;;;;;;;18.73;11.93;;;3.00;99.90;;;;;;4986767;28;20054;-66
2023/01/24 00:04:23;;;;;;;19.05;11.43;;;3.00;99.90;;;;;;4970629;28;20053;-65
2023/01/24 00:06:49;;;;;;;20.73;12.73;;;3.00;99.90;;;;;;4973092;28;20392;-65
2023/01/24 00:09:16;;;;;;;18.08;11.40;;;3.00;99.90;;;;;;4973111;28;20047;-64
2023/01/24 00:11:43;;;;;;;19.17;12.35;;;3.20;99.90;;;;;;4986147;28;20050;-64
2023/01/24 00:14:11;;;;;;;18.08;11.95;;;3.00;99.90;;;;;;4972908;28;20093;-64
2023/01/24 00:16:37;;;;;;;20.30;12.27;;;3.00;99.90;;;;;;4971049;28;20101;-63
2023/01/24 00:19:04;;;;;;;18.38;11.68;;;3.00;99.90;;;;;;4955152;28;20097;-64
2023/01/24 00:21:33;;;;;;;21.02;11.52;;;3.00;99.90;;;;;;4955231;28;20042;-64
2023/01/24 00:23:59;;;;;;;21.88;12.57;;;3.10;99.90;;;;;;4955619;28;20380;-64
2023/01/24 00:26:26;;;;;;;18.63;11.80;;;3.00;99.90;;;;;;4954636;28;20479;-63
2023/01/24 00:28:53;;;;;;;17.75;11.23;;;3.00;99.90;;;;;;4955258;28;20054;-64
2023/01/24 00:31:20;;;;;;;19.55;12.20;;;3.00;99.90;;;;;;4955223;28;20105;-64
2023/01/24 00:33:47;;;;;;;19.55;12.02;;;3.00;99.90;;;;;;4971689;28;20050;-64
2023/01/24 00:36:14;;;;;;;19.10;12.27;;;3.00;99.90;;;;;;4972726;28;20122;-64
2023/01/24 00:38:43;;;;;;;20.02;11.85;;;3.00;99.90;;;;;;4959845;28;20523;-65
2023/01/24 00:41:10;;;;;;;19.77;11.98;;;3.00;99.90;;;;;;4958553;28;20108;-63
2023/01/24 00:43:36;;;;;;;20.63;11.90;;;3.00;99.90;;;;;;4959715;28;20455;-63
2023/01/24 00:46:06;;;;;;;21.17;12.65;;;3.00;99.90;;;;;;4974071;28;20057;-62
2023/01/24 00:48:33;;;;;;;18.33;12.13;;;2.90;99.90;;;;;;4975729;28;20054;-61
2023/01/24 00:51:00;;;;;;;19.10;11.57;;;2.90;99.90;;;;;;4976178;28;20050;-62
2023/01/24 00:53:27;;;;;;;22.05;13.32;;;2.90;99.90;;;;;;4973247;28;20050;-62
2023/01/24 00:55:56;;;;;;;22.55;12.80;;;2.90;99.90;;;;;;4958388;28;20053;-61
2023/01/24 00:58:23;;;;;;;22.23;13.25;;;2.90;99.90;;;;;;4959031;28;20522;-62
2023/01/24 01:00:50;;;;;;;20.27;12.38;;;2.90;99.90;;;;;;4958296;28;20105;-62
2023/01/24 01:03:19;;;;;;;20.50;12.55;;;2.90;99.90;;;;;;4959123;28;20055;-62
2023/01/24 01:05:46;;;;;;;19.67;12.25;;;2.80;99.90;;;;;;4958188;28;20253;-63
2023/01/24 01:08:13;;;;;;;21.92;12.75;;;2.90;99.90;;;;;;4958271;28;20050;-62
2023/01/24 01:10:41;;;;;;;21.55;13.15;;;2.80;99.90;;;;;;4975001;28;20043;-62
2023/01/24 01:13:12;;;;;;;22.25;12.25;;;2.80;99.90;;;;;;4958012;28;20047;-63
2023/01/24 01:15:39;;;;;;;22.20;12.52;;;2.80;99.90;;;;;;4958027;28;20086;-63
2023/01/24 01:18:06;;;;;;;18.52;11.05;;;2.80;99.90;;;;;;4959006;28;20055;-63
2023/01/24 01:20:33;;;;;;;21.80;12.25;;;2.90;99.90;;;;;;4958507;28;20487;-63
2023/01/24 01:22:59;;;;;;;22.55;13.57;;;2.90;99.90;;;;;;4958284;28;20439;-63
2023/01/24 01:25:26;;;;;;;21.75;13.00;;;2.90;99.90;;;;;;4975561;28;20522;-63
2023/01/24 01:27:53;;;;;;;20.70;13.07;;;2.90;99.90;;;;;;4973546;28;20091;-62
2023/01/24 01:30:22;;;;;;;22.92;14.15;;;2.90;99.90;;;;;;4974468;28;20051;-61
2023/01/24 01:32:49;;;;;;;21.13;13.50;;;2.90;99.90;;;;;;4975419;28;20419;-62
2023/01/24 01:35:15;;;;;;;22.35;13.27;;;2.90;99.90;;;;;;4974563;28;20057;-63
2023/01/24 01:37:42;;;;;;;22.92;13.30;;;3.00;99.90;;;;;;4957829;28;20053;-63
2023/01/24 01:40:10;;;;;;;21.08;12.40;;;3.00;99.90;;;;;;4975167;28;20046;-63
2023/01/24 01:42:46;;;;;;;19.02;11.48;;;3.00;99.90;;;;;;4958040;28;20059;-63
2023/01/24 01:45:43;;;;;;;19.15;13.05;;;3.00;99.90;;;;;;4957715;28;20101;-62
2023/01/24 01:48:24;;;;;;;22.48;13.93;;;3.00;99.90;;;;;;4957208;28;20518;-62
2023/01/24 01:51:07;;;;;;;22.75;13.90;;;3.00;99.90;;;;;;4974299;28;20039;-63
2023/01/24 01:53:39;;;;;;;22.67;13.70;;;3.00;99.90;;;;;;4957520;28;20451;-62
2023/01/24 01:56:10;;;;;;;20.63;12.10;;;2.90;99.90;;;;;;4957516;28;20058;-63
2023/01/24 01:58:38;;;;;;;19.85;13.27;;;3.00;99.90;;;;;;4973355;28;20058;-62
2023/01/24 02:01:07;;;;;;;21.50;13.93;;;3.00;99.90;;;;;;4957737;28;20134;-62
2023/01/24 02:03:40;;;;;;;18.25;12.25;;;3.00;99.90;;;;;;4974673;28;20102;-62
2023/01/24 02:06:44;;;;;;;22.27;14.05;;;3.00;99.90;;;;;;4974246;28;20050;-63
2023/01/24 02:09:14;;;;;;;24.20;13.55;;;3.00;99.90;;;;;;4881343;29;20060;-63
2023/01/24 02:11:43;;;;;;;21.88;13.50;;;3.00;99.90;;;;;;4944750;28;20077;-63
2023/01/24 02:16:58;;;;;;;22.08;13.68;;;2.90;99.90;;;;;;4974835;28;20078;-62
2023/01/24 02:19:51;;;;;;;22.02;13.75;;;2.90;99.90;;;;;;4957127;28;20479;-62
2023/01/24 02:22:26;;;;;;;24.73;13.48;;;2.90;99.90;;;;;;4972062;28;20049;-63
2023/01/24 02:25:06;;;;;;;21.92;14.65;;;2.90;99.90;;;;;;4974308;28;20463;-62
2023/01/24 02:27:34;;;;;;;21.80;13.43;;;2.90;99.90;;;;;;4972582;28;20058;-62
2023/01/24 02:30:01;;;;;;;25.58;13.77;;;2.90;99.90;;;;;;4973020;28;20106;-61
2023/01/24 02:32:28;;;;;;;27.10;13.68;;;2.90;99.90;;;;;;4956643;28;20046;-62
2023/01/24 02:34:56;;;;;;;20.80;13.40;;;2.90;99.90;;;;;;4957374;28;20054;-62
2023/01/24 02:37:25;;;;;;;24.45;13.68;;;3.00;99.90;;;;;;4974245;28;20061;-62
2023/01/24 02:39:56;;;;;;;21.27;14.13;;;2.90;99.90;;;;;;4973932;28;20054;-63
2023/01/24 02:42:26;;;;;;;21.85;13.82;;;2.90;99.90;;;;;;4973548;28;20448;-63
2023/01/24 02:45:02;;;;;;;23.93;13.50;;;2.90;99.90;;;;;;4974105;28;20458;-62
2023/01/24 02:47:34;;;;;;;23.05;13.93;;;2.90;99.90;;;;;;4972452;28;20306;-61
2023/01/24 02:50:02;;;;;;;23.30;13.85;;;2.90;99.90;;;;;;4956516;28;20060;-61
2023/01/24 02:55:13;;;;;;;22.90;13.80;;;2.90;99.90;;;;;;4956207;28;20038;-61
2023/01/24 03:00:26;;;;;;;21.00;12.98;;;2.90;99.90;;;;;;4955712;28;20158;-62
2023/01/24 03:02:53;;;;;;;20.38;13.05;;;2.90;99.90;;;;;;4973440;28;20391;-62
2023/01/24 03:05:20;;;;;;;20.48;13.25;;;3.00;99.90;;;;;;4973472;28;20051;-62
2023/01/24 03:07:47;;;;;;;18.13;11.80;;;3.00;99.90;;;;;;4972471;28;20121;-62
2023/01/24 03:10:16;;;;;;;20.90;13.77;;;3.00;99.90;;;;;;4973085;28;20042;-62
2023/01/24 03:34:48;;;;;;;16.42;11.25;;;3.00;99.90;;;;;;4955879;28;20058;-62
2023/01/24 03:37:16;;;;;;;16.90;10.68;;;3.00;99.90;;;;;;4972198;28;20491;-62
2023/01/24 03:39:58;;;;;;;16.35;10.63;;;3.00;99.90;;;;;;4972940;28;20106;-61
2023/01/24 03:42:26;;;;;;;15.02;9.57;;;3.00;99.90;;;;;;4954645;28;20051;-62
2023/01/24 03:44:53;;;;;;;17.52;10.35;;;3.00;99.90;;;;;;4955571;28;20097;-62
2023/01/24 03:47:21;;;;;;;16.33;10.43;;;3.00;99.90;;;;;;4955708;28;20550;-62
2023/01/24 03:52:32;;;;;;;20.20;11.23;;;3.00;99.90;;;;;;4972734;28;20388;-62
2023/01/24 03:55:01;;;;;;;17.60;11.00;;;3.10;99.90;;;;;;4955709;28;20105;-62
2023/01/24 03:57:29;;;;;;;18.10;10.30;;;3.10;99.90;;;;;;4955148;28;20476;-63
2023/01/24 03:59:56;;;;;;;16.08;10.70;;;3.00;99.90;;;;;;4953763;28;20495;-62
2023/01/24 04:02:24;;;;;;;16.90;11.38;;;3.10;99.90;;;;;;4972615;28;20106;-63
2023/01/24 04:07:35;;;;;;;18.65;11.75;;;3.10;99.90;;;;;;4972711;28;20134;-62
2023/01/24 04:10:02;;;;;;;17.58;11.55;;;3.00;99.90;;;;;;4972262;28;20565;-63
2023/01/24 04:12:29;;;;;;;19.20;10.82;;;3.30;99.90;;;;;;4971311;28;20046;-63
2023/01/24 04:14:56;;;;;;;17.52;11.63;;;3.00;99.90;;;;;;4972763;28;20050;-62
2023/01/24 04:17:24;;;;;;;17.30;11.52;;;3.00;99.90;;;;;;4972787;28;20051;-63
2023/01/24 04:19:51;;;;;;;17.95;11.60;;;3.00;99.90;;;;;;4955362;28;20050;-63
2023/01/24 04:22:18;;;;;;;16.45;10.10;;;3.00;99.90;;;;;;4972393;28;20054;-63
2023/01/24 04:24:46;;;;;;;16.20;10.75;;;3.00;99.90;;;;;;4971835;28;20050;-63
2023/01/24 04:27:13;;;;;;;18.38;10.90;;;3.00;99.90;;;;;;4972729;28;20065;-62
2023/01/24 04:29:40;;;;;;;13.27;9.15;;;3.00;99.90;;;;;;4955707;28;20558;-63
2023/01/24 04:32:07;;;;;;;14.38;9.73;;;3.00;99.90;;;;;;4954294;28;20597;-62
2023/01/24 04:34:35;;;;;;;16.52;10.95;;;3.00;99.90;;;;;;4972659;28;20102;-62
2023/01/24 04:37:02;;;;;;;14.70;9.13;;;3.00;99.90;;;;;;4967990;28;20051;-62
2023/01/24 04:39:29;;;;;;;17.00;10.68;;;3.00;99.90;;;;;;4949561;28;20055;-62
2023/01/24 04:41:56;;;;;;;15.75;9.98;;;3.00;99.90;;;;;;4947243;28;20487;-62
2023/01/24 04:44:22;;;;;;;10.90;7.32;;;3.00;99.90;;;;;;4967399;28;20097;-62
2023/01/24 04:46:49;;;;;;;13.20;9.38;;;3.00;99.90;;;;;;4952631;28;20055;-62
2023/01/24 04:49:17;;;;;;;13.35;8.57;;;3.00;99.90;;;;;;4973443;28;20533;-63
2023/01/24 04:51:48;;;;;;;15.65;9.63;;;3.00;99.90;;;;;;4952639;28;20054;-62
2023/01/24 04:54:15;;;;;;;14.38;9.30;;;3.00;99.90;;;;;;4969989;28;20506;-64
2023/01/24 04:56:41;;;;;;;12.52;8.50;;;3.00;99.90;;;;;;4972989;28;20047;-63
2023/01/24 04:59:11;;;;;;;13.68;8.75;;;3.00;99.90;;;;;;4970756;28;20068;-63
2023/01/24 05:01:38;;;;;;;12.32;9.18;;;3.00;99.90;;;;;;4973982;28;20073;-63
2023/01/24 05:04:05;;;;;;;14.10;9.82;;;3.00;99.90;;;;;;4972106;28;20051;-64
2023/01/24 05:06:33;;;;;;;14.90;9.57;;;3.00;99.90;;;;;;4973682;28;20131;-63
2023/01/24 05:09:02;;;;;;;16.80;10.98;;;2.90;99.90;;;;;;4948880;28;20055;-62
2023/01/24 05:11:29;;;;;;;15.80;9.98;;;3.00;99.90;;;;;;4973388;28;20038;-62
2023/01/24 05:13:56;;;;;;;15.55;10.63;;;3.00;99.90;;;;;;4970632;28;20487;-62
2023/01/24 05:16:23;;;;;;;15.10;9.88;;;3.00;99.90;;;;;;4967402;28;20070;-62
2023/01/24 05:18:49;;;;;;;17.65;11.15;;;3.00;99.90;;;;;;4951291;28;20551;-62
2023/01/24 05:21:18;;;;;;;17.92;11.32;;;3.00;99.90;;;;;;4973030;28;20495;-62
2023/01/24 05:23:49;;;;;;;15.43;11.15;;;3.00;99.90;;;;;;4977048;28;20051;-62
2023/01/24 05:26:17;;;;;;;18.83;10.85;;;3.00;99.90;;;;;;4975406;28;20129;-63
2023/01/24 05:28:44;;;;;;;17.88;11.57;;;2.90;99.90;;;;;;4974297;28;20058;-62
2023/01/24 05:31:11;;;;;;;16.48;11.52;;;3.00;99.90;;;;;;4955860;28;21286;-61
2023/01/24 05:33:38;;;;;;;15.05;10.23;;;3.00;99.90;;;;;;4955580;28;20061;-62
2023/01/24 05:36:07;;;;;;;17.05;11.77;;;2.90;99.90;;;;;;4972399;28;20110;-62
2023/01/24 05:38:34;;;;;;;21.33;11.77;;;2.90;99.90;;;;;;4970949;28;20427;-62
2023/01/24 05:41:03;;;;;;;16.30;11.65;;;2.90;99.90;;;;;;4956448;28;20050;-62
2023/01/24 05:43:31;;;;;;;16.63;11.75;;;2.90;99.90;;;;;;4973323;28;20051;-62
2023/01/24 05:46:00;;;;;;;17.77;11.70;;;2.90;99.90;;;;;;4973917;28;20055;-62
2023/01/24 05:48:27;;;;;;;17.30;11.60;;;3.00;99.90;;;;;;4959589;28;20089;-63
2023/01/24 05:50:58;;;;;;;17.98;11.32;;;2.90;99.90;;;;;;4956424;28;20117;-62
2023/01/24 05:53:25;;;;;;;19.00;11.98;;;2.90;99.90;;;;;;4973457;28;20125;-61
2023/01/24 05:55:56;;;;;;;18.98;12.73;;;2.90;99.90;;;;;;4960220;28;20411;-62
2023/01/24 05:58:23;;;;;;;21.10;12.70;;;2.90;99.90;;;;;;4956715;28;20558;-62
2023/01/24 06:00:51;;;;;;;17.38;12.13;;;3.00;99.90;;;;;;4956343;28;20054;-62
2023/01/24 06:03:18;;;;;;;18.30;12.00;;;2.90;99.90;;;;;;4957279;28;20518;-61
2023/01/24 06:05:49;;;;;;;20.55;13.43;;;2.90;99.90;;;;;;4974786;28;20114;-61
2023/01/24 06:08:17;;;;;;;21.73;13.18;;;2.80;99.90;;;;;;4972946;28;20487;-61
2023/01/24 06:10:44;;;;;;;20.45;13.25;;;2.90;99.90;;;;;;4972388;28;20047;-61
2023/01/24 06:13:12;;;;;;;22.13;14.60;;;2.80;99.90;;;;;;4974774;28;20047;-62
2023/01/24 06:15:39;;;;;;;21.60;12.75;;;2.80;99.90;;;;;;4955524;28;20098;-62
2023/01/24 06:18:13;;;;;;;20.02;13.10;;;2.80;99.90;;;;;;4955141;28;20058;-61
2023/01/24 06:20:40;;;;;;;18.75;12.13;;;2.80;99.90;;;;;;4955491;28;20141;-62
2023/01/24 06:23:10;;;;;;;22.75;15.25;;;2.70;99.90;;;;;;4956534;28;20499;-62
2023/01/24 06:25:38;;;;;;;20.45;13.48;;;2.70;99.90;;;;;;4974065;28;20489;-62
2023/01/24 06:28:05;;;;;;;20.83;14.23;;;2.70;99.90;;;;;;4974354;28;20054;-62
2023/01/24 06:30:33;;;;;;;20.10;13.35;;;2.70;99.90;;;;;;4956302;28;20053;-62
2023/01/24 06:33:22;;;;;;;23.52;14.35;;;2.70;99.90;;;;;;4958171;28;20125;-62
2023/01/24 06:36:11;;;;;;;23.92;14.98;;;2.70;99.90;;;;;;4975221;28;20360;-61
2023/01/24 06:38:39;;;;;;;21.73;14.40;;;2.70;99.90;;;;;;4973863;28;20062;-61
2023/01/24 06:41:14;;;;;;;23.25;14.50;;;2.70;99.90;;;;;;4973232;28;20062;-62
2023/01/24 06:43:42;;;;;;;20.27;13.27;;;2.70;99.90;;;;;;4955249;28;20064;-62
2023/01/24 06:46:09;;;;;;;19.45;13.35;;;2.70;99.90;;;;;;4972594;28;20059;-62
2023/01/24 06:48:38;;;;;;;20.55;13.95;;;2.70;99.90;;;;;;4973078;28;20061;-62
2023/01/24 06:51:05;;;;;;;24.58;15.30;;;2.70;99.90;;;;;;4969707;28;20050;-62
2023/01/24 06:53:33;;;;;;;23.08;15.48;;;2.70;99.90;;;;;;4973654;28;20439;-61
2023/01/24 06:56:00;;;;;;;24.15;14.25;;;2.70;99.90;;;;;;4975526;28;20098;-62
2023/01/24 06:58:27;;;;;;;24.52;15.02;;;2.70;99.90;;;;;;4973563;28;20057;-61
2023/01/24 07:00:54;;;;;;;21.67;13.27;;;2.70;99.90;;;;;;4953888;28;20059;-61
2023/01/24 07:03:21;;;;;;;23.55;14.52;;;2.70;99.90;;;;;;4960439;28;20069;-61
2023/01/24 07:05:49;;;;;;;22.20;14.45;;;2.70;99.90;;;;;;4974153;28;20491;-61
2023/01/24 07:08:17;;;;;;;24.90;15.35;;;2.70;99.90;;;;;;4960758;28;20051;-62
2023/01/24 07:10:44;;;;;;;20.60;13.73;;;2.60;99.90;;;;;;4971432;28;20050;-62
2023/01/24 07:13:11;;;;;;;22.05;14.73;;;2.70;99.90;;;;;;4983720;28;20058;-62
2023/01/24 07:15:38;;;;;;;23.40;14.63;;;2.60;99.90;;;;;;4967276;28;20745;-62
2023/01/24 07:18:08;;;;;;;25.50;15.20;;;2.60;99.90;;;;;;4975076;28;20054;-62
2023/01/24 07:20:35;;;;;;;;;;;2.60;99.90;;;;;;4972984;28;20047;-62
2023/01/24 07:23:04;;;;;;;20.40;13.30;;;2.60;99.90;;;;;;4973986;28;19934;-62
2023/01/24 07:25:34;;;;;;;22.67;14.43;;;2.60;99.90;;;;;;4968953;28;20058;-62
2023/01/24 07:28:02;;;;;;;25.75;15.00;;;2.60;99.90;;;;;;4953766;28;20093;-62
2023/01/24 07:30:29;;;;;;;29.42;15.77;;;2.70;99.90;;;;;;4971767;28;20069;-62
2023/01/24 07:32:56;;;;;;;23.15;14.13;;;2.70;99.90;;;;;;4958874;28;20443;-62
2023/01/24 07:35:23;;;;;;;23.08;15.05;;;2.60;99.90;;;;;;4968735;28;20062;-62
2023/01/24 07:37:50;;;;;;;23.17;15.20;;;2.60;99.90;;;;;;4971186;28;20487;-62
2023/01/24 07:40:18;;;;;;;23.20;14.57;;;2.70;99.90;;;;;;4972982;28;20051;-61
2023/01/24 07:42:45;;;;;;;24.92;15.02;;;2.70;99.90;;;;;;4958113;28;20050;-61
2023/01/24 07:45:12;;;;;;;21.88;13.88;;;2.60;99.90;;;;;;4969350;28;20085;-62
2023/01/24 07:47:39;;;;;;;21.08;12.57;;;2.60;99.90;;;;;;4973628;28;20063;-62
2023/01/24 07:50:07;;;;;;;22.48;14.02;;;2.70;99.90;;;;;;4951346;28;20062;-63
2023/01/24 07:52:34;;;;;;;20.00;13.65;;;2.70;99.90;;;;;;4948481;28;20058;-63
2023/01/24 07:55:00;;;;;;;23.98;14.25;;;2.70;99.90;;;;;;4954301;28;20451;-63
2023/01/24 07:57:29;;;;;;;18.83;12.63;;;2.70;99.90;;;;;;4971622;28;20055;-62
2023/01/24 07:59:56;;;;;;;18.25;12.25;;;2.70;99.90;;;;;;4973176;28;20051;-62
2023/01/24 08:02:22;;;;;;;19.73;13.18;;;2.70;99.90;;;;;;4953682;28;20046;-62
2023/01/24 08:04:49;;;;;;;19.27;11.65;;;2.70;99.90;;;;;;4974399;28;20541;-63
2023/01/24 08:07:20;;;;;;;17.88;11.50;;;2.70;99.90;;;;;;4973028;28;20051;-62
2023/01/24 08:09:48;;;;;;;16.15;12.15;;;2.70;99.90;;;;;;4951670;28;20142;-63
2023/01/24 08:12:16;;;;;;;16.58;11.98;;;2.70;99.90;;;;;;4974220;28;20050;-63
2023/01/24 08:14:44;;;;;;;17.73;12.30;;;2.70;99.90;;;;;;4952810;28;20050;-62
2023/01/24 08:17:11;;;;;;;19.73;12.30;;;2.70;99.90;;;;;;4959160;28;20062;-62
2023/01/24 08:19:39;;;;;;;18.42;11.95;;;2.70;99.90;;;;;;4970141;28;20047;-63
2023/01/24 08:22:06;;;;;;;17.52;11.88;;;2.70;99.90;;;;;;4972531;28;20046;-62
2023/01/24 08:24:33;;;;;;;17.45;11.45;;;2.70;99.90;;;;;;4969869;28;20054;-62
2023/01/24 08:27:02;;;;;;;17.15;10.13;;;2.70;99.90;;;;;;4971772;28;20050;-62
2023/01/24 08:29:30;;;;;;;15.85;10.82;;;2.70;99.90;;;;;;4957006;28;20061;-63
2023/01/24 08:31:58;;;;;;;15.73;10.43;;;2.70;99.90;;;;;;4969504;28;20043;-63
2023/01/24 08:34:25;;;;;;;16.45;11.35;;;2.70;99.90;;;;;;4952324;28;20059;-63
2023/01/24 08:36:52;;;;;;;16.85;10.90;;;2.70;99.90;;;;;;4974140;28;20051;-62
2023/01/24 08:39:19;;;;;;;19.50;12.57;;;2.70;99.90;;;;;;4952895;28;20696;-62
2023/01/24 08:41:46;;;;;;;16.10;11.20;;;2.70;99.90;;;;;;4953479;28;20054;-62
2023/01/24 08:44:13;;;;;;;17.38;11.70;;;2.70;99.90;;;;;;4971052;28;20515;-62
2023/01/24 08:46:41;;;;;;;18.80;12.27;;;2.70;99.90;;;;;;4959878;28;20125;-61
2023/01/24 08:49:10;;;;;;;14.55;9.80;;;2.70;99.90;;;;;;4983237;28;20050;-62
2023/01/24 08:51:37;;;;;;;14.70;9.23;;;2.70;99.90;;;;;;4968503;28;20455;-62
2023/01/24 08:54:05;;;;;;;14.32;9.90;;;2.70;99.90;;;;;;4972569;28;20043;-61
2023/01/24 08:56:32;;;;;;;20.35;11.95;;;2.80;99.90;;;;;;4972106;28;20051;-62
2023/01/24 08:58:59;;;;;;;16.55;10.80;;;2.80;99.90;;;;;;4976411;28;20051;-61
2023/01/24 09:01:26;;;;;;;16.65;11.00;;;2.80;99.90;;;;;;4965545;28;20054;-62
2023/01/24 09:03:56;;;;;;;16.92;11.65;;;2.80;99.90;;;;;;4977644;28;20070;-62
2023/01/24 09:06:25;;;;;;;14.43;10.65;;;2.80;99.90;;;;;;4977368;28;20055;-62
2023/01/24 09:08:53;;;;;;;15.20;10.73;;;2.80;99.90;;;;;;4958529;28;20392;-62
2023/01/24 09:11:20;;;;;;;15.57;10.15;;;2.80;99.90;;;;;;4974758;28;20082;-62
2023/01/24 09:13:47;;;;;;;16.98;11.02;;;3.40;99.90;;;;;;4961784;28;20050;-62
2023/01/24 09:16:14;;;;;;;16.70;10.93;;;2.80;99.90;;;;;;4961519;28;20058;-62
2023/01/24 09:18:41;;;;;;;16.77;10.93;;;2.80;99.90;;;;;;4963298;28;20050;-62
2023/01/24 09:21:08;;;;;;;15.85;11.10;;;2.80;99.90;;;;;;4967639;28;20086;-62
2023/01/24 09:23:36;;;;;;;14.63;10.70;;;2.80;99.90;;;;;;4957968;28;20054;-62
2023/01/24 09:26:04;;;;;;;16.60;10.93;;;2.80;99.90;;;;;;4973830;28;20046;-62
2023/01/24 09:28:31;;;;;;;15.35;10.63;;;2.90;99.90;;;;;;4949341;28;20067;-62
2023/01/24 09:30:58;;;;;;;16.45;10.65;;;2.90;99.90;;;;;;4971193;28;20356;-63
2023/01/24 09:33:25;;;;;;;13.73;8.95;;;2.90;99.90;;;;;;4974127;28;20054;-63
2023/01/24 09:35:53;;;;;;;13.20;8.77;;;3.00;99.90;;;;;;4974483;28;20051;-63
2023/01/24 09:38:22;;;;;;;14.75;8.45;;;2.90;99.90;;;;;;4972329;28;20519;-62
2023/01/24 09:40:57;;;;;;;13.38;9.20;;;2.90;99.90;;;;;;4974507;28;20573;-62
2023/01/24 09:43:41;;;;;;;14.50;8.88;;;3.00;99.90;;;;;;4957476;28;20046;-63
2023/01/24 09:46:16;;;;;;;12.20;8.48;;;2.90;99.90;;;;;;4957900;28;20050;-63
2023/01/24 09:48:44;;;;;;;13.05;8.80;;;3.00;99.90;;;;;;4957705;28;20051;-63
2023/01/24 09:51:17;;;;;;;13.15;8.82;;;3.00;99.90;;;;;;4957726;28;20050;-63
2023/01/24 09:53:46;;;;;;;12.32;8.63;;;3.00;99.90;;;;;;4958132;28;20051;-62
2023/01/24 09:56:26;;;;;;;15.00;9.90;;;3.00;99.90;;;;;;4957230;28;20046;-62
2023/01/24 09:59:09;;;;;;;13.23;8.63;;;3.10;99.90;;;;;;4955997;28;20051;-61
2023/01/24 10:01:38;;;;;;;13.30;8.85;;;3.00;99.90;;;;;;4957086;28;20057;-62
2023/01/24 10:04:06;;;;;;;12.68;8.73;;;3.10;99.90;;;;;;4956970;28;20113;-62
2023/01/24 10:06:34;;;;;;;14.40;9.45;;;3.10;99.90;;;;;;4958465;28;20093;-62
2023/01/24 10:09:12;;;;;;;14.57;9.02;;;3.10;99.90;;;;;;4956623;28;20400;-63
2023/01/24 10:11:49;;;;;;;13.23;8.57;;;3.10;99.90;;;;;;4972562;28;20051;-62
2023/01/24 10:14:35;;;;;;;13.90;8.80;;;3.10;99.90;;;;;;4957462;28;20054;-62
2023/01/24 10:17:39;;;;;;;12.73;8.68;;;3.00;99.90;;;;;;4972582;28;20055;-62
2023/01/24 10:20:32;;;;;;;12.63;8.40;;;3.10;99.90;;;;;;4948726;28;20050;-61
2023/01/24 10:23:06;;;;;;;11.25;7.35;;;3.00;99.90;;;;;;4971811;28;20062;-62
2023/01/24 10:25:46;;;;;;;12.68;7.93;;;3.00;99.90;;;;;;4972985;28;20129;-63
2023/01/24 10:28:23;;;;;;;12.10;8.18;;;3.00;99.90;;;;;;4974138;28;20051;-63
2023/01/24 10:31:02;;;;;;;13.98;9.10;;;3.10;99.90;;;;;;4957718;28;20058;-63
2023/01/24 10:33:32;;;;;;;14.02;9.32;;;3.10;99.90;;;;;;4957286;28;20407;-64
2023/01/24 10:36:04;;;;;;;11.97;8.63;;;3.10;99.90;;;;;;4973570;28;20047;-62
2023/01/24 10:38:31;;;;;;;12.43;8.57;;;3.20;99.90;;;;;;4973954;28;20515;-62
2023/01/24 10:41:13;;;;;;;15.07;8.75;;;3.20;99.90;;;;;;4972136;28;20046;-62
2023/01/24 10:43:45;;;;;;;11.70;8.15;;;3.20;99.90;;;;;;4979917;28;20050;-63
2023/01/24 10:46:50;;;;;;;13.07;8.48;;;3.20;99.90;;;;;;4961724;28;20046;-63
2023/01/24 10:49:23;;;;;;;10.88;7.93;;;3.20;99.90;;;;;;4925321;28;20109;-63
2023/01/24 10:52:09;;;;;;;13.00;7.55;;;3.20;99.90;;;;;;4956248;28;20057;-61
2023/01/24 10:54:46;;;;;;;14.00;8.45;;;3.30;99.90;;;;;;4956870;28;20109;-62
2023/01/24 10:57:28;;;;;;;12.43;8.68;;;3.20;99.90;;;;;;4972996;28;20051;-62
2023/01/24 11:00:01;;;;;;;12.60;8.43;;;3.20;99.90;;;;;;4973791;28;20070;-62
2023/01/24 11:02:33;;;;;;;11.48;7.95;;;3.30;99.90;;;;;;4973131;28;20051;-62
2023/01/24 11:05:02;;;;;;;12.68;8.43;;;3.20;99.90;;;;;;4971402;28;20057;-62
2023/01/24 11:07:32;;;;;;;10.60;7.97;;;3.20;99.90;;;;;;4973117;28;20058;-63
2023/01/24 11:10:09;;;;;;;12.90;8.48;;;3.20;99.90;;;;;;4974044;28;20054;-62
2023/01/24 11:12:36;;;;;;;12.07;7.72;;;3.20;99.90;;;;;;4955741;28;20071;-61
2023/01/24 11:15:14;;;;;;;12.27;7.85;;;3.30;99.90;;;;;;4955869;28;20435;-63
2023/01/24 11:17:42;;;;;;;12.43;7.93;;;3.20;99.90;;;;;;4973873;28;21161;-62
2023/01/24 11:20:23;;;;;;;13.38;8.25;;;3.20;99.90;;;;;;4972945;28;20046;-63
2023/01/24 11:22:51;;;;;;;13.90;8.50;;;3.30;99.90;;;;;;4973324;28;20055;-63
2023/01/24 11:25:18;;;;;;;11.55;7.65;;;3.30;99.90;;;;;;4970945;28;20459;-63
2023/01/24 11:27:47;;;;;;;10.43;7.45;;;3.40;99.90;;;;;;4975772;28;20052;-62
2023/01/24 11:30:19;;;;;;;13.20;8.55;;;3.40;99.90;;;;;;4970732;28;20050;-62
2023/01/24 11:33:02;;;;;;;12.55;8.63;;;3.40;99.90;;;;;;4956112;28;20058;-62
2023/01/24 11:35:34;;;;;;;12.88;8.80;;;3.40;99.90;;;;;;4957399;28;20514;-62
2023/01/24 11:38:22;;;;;;;13.23;8.55;;;3.40;99.90;;;;;;4955557;28;20419;-62
2023/01/24 11:41:00;;;;;;;14.05;9.52;;;3.30;99.90;;;;;;4955223;28;20055;-61
2023/01/24 11:43:43;;;;;;;12.60;8.38;;;3.30;99.90;;;;;;4962339;28;20110;-62
2023/01/24 11:46:22;;;;;;;13.32;8.73;;;3.30;99.90;;;;;;4972689;28;20054;-62
2023/01/24 11:48:54;;;;;;;14.10;8.10;;;3.30;99.90;;;;;;4972112;28;20484;-62
2023/01/24 11:51:38;;;;;;;14.38;9.15;;;3.40;99.90;;;;;;4954775;28;20615;-63
2023/01/24 11:54:23;;;;;;;13.48;8.73;;;3.40;99.90;;;;;;4972735;28;20059;-62
2023/01/24 11:56:56;;;;;;;13.93;8.73;;;3.40;99.90;;;;;;4954116;28;20050;-62
2023/01/24 11:59:38;;;;;;;15.15;8.88;;;3.40;99.90;;;;;;4955786;28;20528;-62
2023/01/24 12:02:24;;;;;;;13.40;9.02;;;3.40;99.90;;;;;;4970190;28;20052;-63
2023/01/24 12:05:10;;;;;;;15.50;10.07;;;3.40;99.90;;;;;;4972124;28;20050;-63
2023/01/24 12:07:47;;;;;;;14.75;9.93;;;3.40;99.90;;;;;;4952566;28;20062;-62
2023/01/24 12:10:23;;;;;;;13.10;8.38;;;3.40;99.90;;;;;;4969799;28;20506;-62
2023/01/24 12:12:55;;;;;;;13.02;7.90;;;3.40;99.90;;;;;;4972200;28;20525;-62
2023/01/24 12:15:44;;;;;;;12.82;8.52;;;3.40;99.90;;;;;;4972385;28;20039;-63
2023/01/24 12:18:30;;;;;;;13.55;8.93;;;3.30;99.90;;;;;;4971736;28;20498;-63
2023/01/24 12:21:04;;;;;;;13.82;9.38;;;3.30;99.90;;;;;;4969431;28;20403;-62
2023/01/24 12:23:40;;;;;;;14.25;8.60;;;3.30;99.90;;;;;;4954649;28;20059;-62
2023/01/24 12:26:14;;;;;;;12.38;8.40;;;3.40;99.90;;;;;;4954836;28;20059;-62
2023/01/24 12:28:47;;;;;;;14.95;9.50;;;3.40;99.90;;;;;;4955107;28;20051;-62
2023/01/24 12:31:19;;;;;;;14.05;9.00;;;3.40;99.90;;;;;;4968982;28;20058;-63
2023/01/24 12:33:55;;;;;;;13.25;9.27;;;3.40;99.90;;;;;;4971935;28;20053;-63
2023/01/24 12:36:33;;;;;;;14.63;9.15;;;3.40;99.90;;;;;;4971753;28;20057;-63
2023/01/24 12:39:11;;;;;;;13.23;8.82;;;3.30;99.90;;;;;;4954277;28;20483;-63
2023/01/24 12:41:39;;;;;;;13.63;9.25;;;3.40;99.90;;;;;;4970989;28;20403;-63
2023/01/24 12:44:24;;;;;;;14.63;10.05;;;3.40;99.90;;;;;;4971435;28;20042;-62
2023/01/24 12:47:05;;;;;;;16.27;10.07;;;3.40;99.90;;;;;;4969942;28;20122;-63
2023/01/24 12:49:39;;;;;;;15.30;9.43;;;3.40;99.90;;;;;;4971476;28;20047;-63
2023/01/24 12:52:17;;;;;;;14.55;9.40;;;3.40;99.90;;;;;;4954496;28;20404;-62
2023/01/24 12:54:50;;;;;;;13.68;9.20;;;3.40;99.90;;;;;;4970261;28;20070;-62
2023/01/24 12:57:23;;;;;;;15.60;9.88;;;3.50;99.90;;;;;;4970303;28;20051;-62
2023/01/24 12:59:50;;;;;;;14.27;9.73;;;3.50;99.90;;;;;;4970721;28;20058;-62
2023/01/24 13:02:48;;;;;;;13.95;9.27;;;3.50;99.90;;;;;;4952989;28;20097;-62
2023/01/24 13:05:39;;;;;;;15.60;9.25;;;3.40;99.90;;;;;;4970817;28;20407;-61
2023/01/24 13:08:22;;;;;;;14.57;9.07;;;3.40;99.90;;;;;;4952103;28;20510;-61
2023/01/24 13:10:58;;;;;;;14.13;9.63;;;3.40;99.90;;;;;;4969921;28;20411;-62
2023/01/24 13:13:30;;;;;;;15.40;8.77;;;3.40;99.90;;;;;;4952808;28;20054;-62
2023/01/24 13:16:13;;;;;;;15.77;9.75;;;3.50;99.90;;;;;;4958166;28;20050;-62
2023/01/24 13:18:56;;;;;;;15.80;9.32;;;3.50;99.90;;;;;;4968724;28;20513;-63
2023/01/24 13:21:34;;;;;;;13.13;9.55;;;3.50;99.90;;;;;;4972712;28;20046;-61
2023/01/24 13:24:27;;;;;;;15.68;10.15;;;3.50;99.90;;;;;;4967316;28;20051;-61
2023/01/24 13:27:07;;;;;;;17.67;11.02;;;3.40;99.90;;;;;;4970744;28;20059;-61
2023/01/24 13:30:14;;;;;;;16.35;10.65;;;3.40;99.90;;;;;;4952371;28;20129;-61
2023/01/24 13:32:41;;;;;;;14.80;9.65;;;3.40;99.90;;;;;;4961447;28;20046;-61
2023/01/24 13:35:17;;;;;;;14.23;9.20;;;3.30;99.90;;;;;;4946854;28;20074;-62
2023/01/24 13:37:52;;;;;;;14.40;9.25;;;3.30;99.90;;;;;;4969285;28;20051;-62